This is the latest recevied weather packets stored in our database for station/object KK7UNF. If no packets are shown the sender has not sent any weather packets the latest 10 day(s).
| Time | Temp. | Humidity | Pressure | Rain* | Wind** | Luminosity | Snow |
|---|---|---|---|---|---|---|---|
| 1777220144 | 6.67° C | 81% | 1010.3 hPa | 0 mm | - | 44 W/m² | - |
| 1777213840 | 2.78° C | 89% | 1010.1 hPa | 0 mm | - | 28 W/m² | - |
| 1777201240 | 4.44° C | 82% | 1009.4 hPa | 0 mm | - | 0 W/m² | - |
| 1777197641 | 5° C | 80% | 1009.4 hPa | 0 mm | - | 0 W/m² | - |
| 1777192242 | 6.67° C | 76% | 1009.8 hPa | 0 mm | - | 0 W/m² | - |
| 1777188644 | 7.22° C | 71% | 1009.6 hPa | 0 mm | - | 0 W/m² | - |
| 1777185041 | 8.33° C | 67% | 1009.6 hPa | 0 mm | - | 0 W/m² | - |
| 1777179649 | 10.56° C | 58% | 1010 hPa | 0 mm | - | 0 W/m² | - |
| 1777173342 | 14.44° C | 42% | 1009.8 hPa | 0 mm | - | 0 W/m² | - |
| 1777164342 | 17.22° C | 38% | 1009.9 hPa | 0 mm | - | 149 W/m² | - |
| 1777159868 | 17.78° C | 35% | 1010.4 hPa | 0 mm | - | 65 W/m² | - |
| 1777158940 | 17.78° C | 28% | 1010.4 hPa | 0 mm | - | 62 W/m² | - |
| 1777158038 | 18.33° C | 30% | 1010.7 hPa | 0 mm | - | 54 W/m² | - |
| 1777157141 | 18.89° C | 35% | 1010.7 hPa | 0 mm | - | 81 W/m² | - |
| 1777156242 | 18.89° C | 35% | 1010.8 hPa | 0 mm | - | 128 W/m² | - |
| 1777152640 | 20° C | 28% | 1011.1 hPa | 0 mm | - | 482 W/m² | - |
| 1777151736 | 20° C | 27% | 1011.3 hPa | 0 mm | - | 664 W/m² | - |
| 1777147239 | 17.78° C | 35% | 1011.8 hPa | 0 mm | - | 788 W/m² | - |
| 1777141851 | 12.22° C | 64% | 1013 hPa | 0 mm | - | 56 W/m² | - |
| 1777140951 | 11.11° C | 65% | 1013 hPa | 0 mm | - | 53 W/m² | - |
| 1777135562 | 6.67° C | 81% | 1014 hPa | 0 mm | - | 46 W/m² | - |
| 1777131946 | 4.44° C | 90% | 1014.2 hPa | 0 mm | - | 39 W/m² | - |
| 1777128353 | 2.22° C | 92% | 1014.7 hPa | 0 mm | - | 32 W/m² | - |
| 1777118441 | 2.78° C | 88% | 1014.6 hPa | 0 mm | - | 0 W/m² | - |
| 1777117542 | 2.78° C | 87% | 1014.8 hPa | 0 mm | - | 0 W/m² | - |
* Rain latest hour (hover to see other rain measurements)
** Current wind speed in m/s (hover to see current wind gust speed)